Time;durP1;ratioP1;P1;durP2;ratioP2;P2;SDS_P1;SDS_P2;PMS_P1;PMS_P2;Temp;Humidity;BMP_temperature;BMP_pressure;BME280_temperature;BME280_humidity;BME280_pressure;Samples;Min_cycle;Max_cycle;Signal;HPM_P1;HPM_P2
2023/06/22 00:01:32;;;;;;;8.00;7.80;;;20.30;99.90;;;;;;5015105;28;20227;-84
2023/06/22 00:04:03;;;;;;;8.35;8.15;;;20.30;99.90;;;;;;5015648;28;20247;-84
2023/06/22 00:06:31;;;;;;;8.27;8.07;;;20.30;99.90;;;;;;5009314;28;20259;-84
2023/06/22 00:08:59;;;;;;;8.43;8.23;;;20.20;99.90;;;;;;5008177;28;20290;-84
2023/06/22 00:11:29;;;;;;;8.60;8.40;;;20.20;99.90;;;;;;5014624;28;20228;-84
2023/06/22 00:13:58;;;;;;;9.00;8.70;;;20.20;99.90;;;;;;5015803;28;20220;-84
2023/06/22 00:16:27;;;;;;;9.05;8.75;;;20.20;99.90;;;;;;5019328;28;20244;-84
2023/06/22 00:19:00;;;;;;;8.73;8.52;;;20.10;99.90;;;;;;5007466;28;20237;-85
2023/06/22 00:21:38;;;;;;;8.77;8.57;;;20.10;99.90;;;;;;5007651;28;21146;-84
2023/06/22 00:24:07;;;;;;;8.82;8.63;;;20.10;99.90;;;;;;5007260;28;20361;-85
2023/06/22 00:26:37;;;;;;;8.80;8.60;;;20.10;99.90;;;;;;5007644;28;20276;-84
2023/06/22 00:29:06;;;;;;;8.80;8.60;;;20.10;99.90;;;;;;5006749;28;20268;-84
2023/06/22 00:31:35;;;;;;;9.10;8.80;;;20.10;99.90;;;;;;5006638;28;20228;-84
2023/06/22 00:34:06;;;;;;;8.25;8.05;;;20.00;99.90;;;;;;5006995;28;20264;-84
2023/06/22 00:36:37;;;;;;;8.35;8.15;;;20.00;99.90;;;;;;5007027;28;20267;-85
2023/06/22 00:39:12;;;;;;;8.40;8.20;;;20.00;99.90;;;;;;5005956;28;20225;-84
2023/06/22 00:41:41;;;;;;;8.02;7.82;;;20.00;99.90;;;;;;5005833;28;20228;-84
2023/06/22 00:44:11;;;;;;;8.10;7.90;;;19.90;99.90;;;;;;5006634;28;20296;-84
2023/06/22 00:46:41;;;;;;;8.50;8.30;;;19.80;99.90;;;;;;5006629;28;20228;-84
2023/06/22 00:49:10;;;;;;;8.60;8.40;;;19.70;99.90;;;;;;5006709;28;20263;-84
2023/06/22 00:51:47;;;;;;;8.68;8.48;;;19.70;99.90;;;;;;5018498;28;20205;-82
2023/06/22 00:54:24;;;;;;;8.40;8.20;;;19.60;99.90;;;;;;5018369;28;20239;-84
2023/06/22 00:56:57;;;;;;;8.25;8.05;;;19.50;99.90;;;;;;5011892;28;20247;-84
2023/06/22 00:59:26;;;;;;;8.60;8.40;;;19.50;99.90;;;;;;5009391;28;20303;-84
2023/06/22 01:01:56;;;;;;;8.20;8.00;;;19.50;99.90;;;;;;5004992;28;20232;-84
2023/06/22 01:04:27;;;;;;;8.52;8.32;;;19.40;99.90;;;;;;5011582;28;20220;-84
2023/06/22 01:07:13;;;;;;;8.48;8.27;;;19.40;99.90;;;;;;5018762;28;20303;-83
2023/06/22 01:09:53;;;;;;;8.23;8.02;;;19.30;99.90;;;;;;5019953;28;20252;-83
2023/06/22 01:12:21;;;;;;;8.20;8.00;;;19.30;99.90;;;;;;5016564;28;20237;-84
2023/06/22 01:14:59;;;;;;;8.50;8.30;;;19.30;99.90;;;;;;5017677;28;20236;-84
2023/06/22 01:17:28;;;;;;;8.45;8.25;;;19.30;99.90;;;;;;5017665;28;20263;-83
2023/06/22 01:19:57;;;;;;;8.40;8.20;;;19.30;99.90;;;;;;5011067;28;20225;-84
2023/06/22 01:22:34;;;;;;;8.20;8.00;;;19.30;99.90;;;;;;5008465;28;20217;-85
2023/06/22 01:25:13;;;;;;;8.48;8.27;;;19.30;99.90;;;;;;5010747;28;20317;-84
2023/06/22 01:30:46;;;;;;;8.40;8.20;;;19.20;99.90;;;;;;5006266;28;20308;-84
2023/06/22 01:33:17;;;;;;;8.50;8.30;;;19.30;99.90;;;;;;5007339;28;20246;-84
2023/06/22 01:35:46;;;;;;;8.10;7.90;;;19.20;99.90;;;;;;5006314;28;20247;-84
2023/06/22 01:38:14;;;;;;;8.00;7.80;;;19.20;99.90;;;;;;5006542;28;20268;-84
2023/06/22 01:40:44;;;;;;;7.68;7.47;;;19.20;99.90;;;;;;5006103;28;20746;-84
2023/06/22 01:43:13;;;;;;;7.72;7.53;;;19.20;99.90;;;;;;5006301;28;20228;-84
2023/06/22 01:45:52;;;;;;;7.75;7.55;;;19.20;99.90;;;;;;5006895;28;20300;-84
2023/06/22 01:48:21;;;;;;;7.90;7.70;;;19.20;99.90;;;;;;5007074;28;20228;-85
2023/06/22 01:50:51;;;;;;;7.78;7.57;;;19.20;99.90;;;;;;5013909;28;20244;-85
2023/06/22 01:53:20;;;;;;;8.10;7.90;;;19.20;99.90;;;;;;5009936;28;20261;-84
2023/06/22 01:55:50;;;;;;;8.00;7.80;;;19.10;99.90;;;;;;5006239;28;20237;-84
2023/06/22 01:58:19;;;;;;;8.25;8.05;;;19.10;99.90;;;;;;5006662;28;20240;-84
2023/06/22 02:00:59;;;;;;;8.10;7.90;;;19.10;99.90;;;;;;5006842;28;20295;-84
2023/06/22 02:03:35;;;;;;;8.00;7.80;;;19.00;99.90;;;;;;5026631;28;20356;-84
2023/06/22 02:06:14;;;;;;;8.00;7.80;;;19.00;99.90;;;;;;5027016;28;20251;-84
2023/06/22 02:08:52;;;;;;;7.85;7.65;;;19.00;99.90;;;;;;5026869;28;20235;-84
2023/06/22 02:11:22;;;;;;;7.90;7.70;;;18.80;99.90;;;;;;5030271;28;20235;-84
2023/06/22 02:13:51;;;;;;;8.07;7.88;;;18.80;99.90;;;;;;5015324;28;20276;-84
2023/06/22 02:16:23;;;;;;;7.97;7.78;;;18.70;99.90;;;;;;5008020;28;20243;-83
2023/06/22 02:18:53;;;;;;;8.20;8.00;;;18.70;99.90;;;;;;5005459;28;20260;-84
2023/06/22 02:21:21;;;;;;;8.40;8.20;;;18.70;99.90;;;;;;5006248;28;20225;-84
2023/06/22 02:23:50;;;;;;;8.32;8.13;;;18.70;99.90;;;;;;5005820;28;20225;-84
2023/06/22 02:26:20;;;;;;;8.50;8.30;;;18.60;99.90;;;;;;5005652;28;20252;-84
2023/06/22 02:28:49;;;;;;;8.65;8.45;;;18.60;99.90;;;;;;5005780;28;20294;-84
2023/06/22 02:31:19;;;;;;;8.73;8.52;;;18.50;99.90;;;;;;5005067;28;20225;-84
2023/06/22 02:33:51;;;;;;;8.70;8.50;;;18.60;99.90;;;;;;5005548;28;20240;-84
2023/06/22 02:36:22;;;;;;;8.40;8.20;;;18.60;99.90;;;;;;5004978;28;20339;-84
2023/06/22 02:38:50;;;;;;;8.38;8.18;;;18.60;99.90;;;;;;5005844;28;20288;-84
2023/06/22 02:41:18;;;;;;;8.35;8.15;;;18.60;99.90;;;;;;5005652;28;20239;-84
2023/06/22 02:43:46;;;;;;;8.25;8.05;;;18.60;99.90;;;;;;5005868;28;20288;-83
2023/06/22 02:46:16;;;;;;;8.10;7.90;;;18.60;99.90;;;;;;5005825;28;20271;-84
2023/06/22 02:48:45;;;;;;;8.10;7.90;;;18.40;99.90;;;;;;5005962;28;20287;-83
2023/06/22 02:51:23;;;;;;;8.10;7.90;;;18.20;99.90;;;;;;5005763;28;20292;-83
2023/06/22 02:53:57;;;;;;;8.85;8.55;;;18.00;99.90;;;;;;5012014;28;20232;-84
2023/06/22 02:56:25;;;;;;;8.65;8.45;;;18.00;99.90;;;;;;5005209;28;20248;-84
2023/06/22 02:58:53;;;;;;;8.88;8.57;;;18.00;99.90;;;;;;5005083;28;20247;-84
2023/06/22 03:01:24;;;;;;;8.98;8.68;;;18.00;99.90;;;;;;5005133;28;20295;-84
2023/06/22 03:03:52;;;;;;;8.82;8.52;;;18.00;99.90;;;;;;5005353;28;20240;-84
2023/06/22 03:06:23;;;;;;;8.90;8.60;;;18.00;99.90;;;;;;5005342;28;20324;-83
2023/06/22 03:08:51;;;;;;;8.27;8.07;;;18.00;99.90;;;;;;5005811;28;20244;-84
2023/06/22 03:11:19;;;;;;;8.10;7.90;;;18.00;99.90;;;;;;5006003;28;20228;-84
2023/06/22 03:13:48;;;;;;;8.15;7.95;;;17.90;99.90;;;;;;5005228;28;20221;-83
2023/06/22 03:16:18;;;;;;;8.68;8.48;;;18.00;99.90;;;;;;5004928;28;20320;-84
2023/06/22 03:18:47;;;;;;;8.60;8.40;;;18.00;99.90;;;;;;5005707;28;20244;-84
2023/06/22 03:21:17;;;;;;;8.40;8.20;;;18.10;99.90;;;;;;5006971;28;20311;-84
2023/06/22 03:23:49;;;;;;;8.13;7.93;;;18.20;99.90;;;;;;5012739;28;20220;-84
2023/06/22 03:29:03;;;;;;;8.10;7.90;;;18.40;99.90;;;;;;5005472;28;20260;-84
2023/06/22 03:31:31;;;;;;;7.90;7.70;;;18.40;99.90;;;;;;5008303;28;20328;-84
2023/06/22 03:34:01;;;;;;;7.85;7.65;;;18.40;99.90;;;;;;5009129;28;20267;-84
2023/06/22 03:36:32;;;;;;;7.60;7.40;;;18.50;99.90;;;;;;5009329;28;20268;-84
2023/06/22 03:39:03;;;;;;;7.70;7.50;;;18.50;99.90;;;;;;5009520;28;20253;-84
2023/06/22 03:41:31;;;;;;;7.85;7.65;;;18.60;99.90;;;;;;5009177;28;20232;-83
2023/06/22 03:43:59;;;;;;;8.38;8.18;;;18.60;99.90;;;;;;5008508;28;20220;-83
2023/06/22 03:46:28;;;;;;;8.30;8.10;;;18.60;99.90;;;;;;5007946;28;20243;-83
2023/06/22 03:49:01;;;;;;;8.18;7.97;;;18.70;99.90;;;;;;5008646;28;20236;-84
2023/06/22 03:51:29;;;;;;;8.73;8.52;;;18.80;99.90;;;;;;5008056;28;20260;-84
2023/06/22 03:53:57;;;;;;;8.63;8.43;;;18.80;99.90;;;;;;5027742;28;20231;-83
2023/06/22 03:56:39;;;;;;;8.57;8.38;;;18.90;99.90;;;;;;5027614;28;20291;-83
2023/06/22 03:59:08;;;;;;;8.73;8.52;;;18.90;99.90;;;;;;5027646;28;20238;-84
2023/06/22 04:01:36;;;;;;;8.63;8.43;;;18.80;99.90;;;;;;5027734;28;20228;-84
2023/06/22 04:04:04;;;;;;;8.65;8.45;;;18.80;99.90;;;;;;5027301;28;20283;-83
2023/06/22 04:06:33;;;;;;;8.75;8.55;;;18.80;99.90;;;;;;5027180;28;20236;-83
2023/06/22 04:09:02;;;;;;;8.48;8.27;;;18.80;99.90;;;;;;5029643;28;20243;-83
2023/06/22 04:11:34;;;;;;;8.40;8.20;;;18.90;99.90;;;;;;5015881;28;20300;-83
2023/06/22 04:14:02;;;;;;;8.40;8.20;;;18.90;99.90;;;;;;5006444;28;20225;-83
2023/06/22 04:16:30;;;;;;;8.45;8.25;;;18.80;99.90;;;;;;5006550;28;20236;-83
2023/06/22 04:19:03;;;;;;;8.07;7.88;;;18.70;99.90;;;;;;5006973;28;20225;-83
2023/06/22 04:21:31;;;;;;;8.50;8.30;;;18.80;99.90;;;;;;5006406;28;20292;-85
2023/06/22 04:24:00;;;;;;;8.50;8.30;;;18.80;99.90;;;;;;5007726;28;20225;-84
2023/06/22 04:26:30;;;;;;;8.50;8.30;;;18.90;99.90;;;;;;5007403;28;20243;-84
2023/06/22 04:29:08;;;;;;;8.60;8.40;;;18.90;99.90;;;;;;5008541;28;20236;-84
2023/06/22 04:31:40;;;;;;;8.65;8.45;;;18.90;99.90;;;;;;5008381;28;20228;-84
2023/06/22 04:34:09;;;;;;;8.40;8.20;;;19.00;99.90;;;;;;5019682;28;20217;-84
2023/06/22 04:36:38;;;;;;;8.13;7.93;;;19.00;99.90;;;;;;5026718;28;20251;-83
2023/06/22 04:39:09;;;;;;;8.88;8.68;;;19.00;99.90;;;;;;5026723;28;20236;-83
2023/06/22 04:41:44;;;;;;;8.60;8.40;;;19.10;99.90;;;;;;5025751;28;20231;-83
2023/06/22 04:44:23;;;;;;;8.40;8.20;;;19.10;99.90;;;;;;5026806;28;20282;-83
2023/06/22 04:46:53;;;;;;;8.32;8.13;;;19.10;99.90;;;;;;5026734;28;20246;-84
2023/06/22 04:49:22;;;;;;;8.20;8.00;;;19.20;99.90;;;;;;5026719;28;20228;-83
2023/06/22 04:51:54;;;;;;;8.30;8.10;;;19.30;99.90;;;;;;5027755;28;20236;-84
2023/06/22 04:54:22;;;;;;;8.60;8.40;;;19.40;99.90;;;;;;5029258;28;20229;-84
2023/06/22 04:56:56;;;;;;;8.90;8.70;;;19.40;99.90;;;;;;5030559;28;20228;-84
2023/06/22 04:59:38;;;;;;;9.10;8.80;;;19.50;99.90;;;;;;5028109;28;20240;-84
2023/06/22 05:02:07;;;;;;;9.20;8.90;;;19.60;99.90;;;;;;5027786;28;20232;-84
2023/06/22 05:04:38;;;;;;;9.07;8.80;;;19.70;99.90;;;;;;5027766;28;20259;-84
2023/06/22 05:07:06;;;;;;;9.13;8.82;;;19.70;99.90;;;;;;5026572;28;20240;-84
2023/06/22 05:09:34;;;;;;;9.15;8.85;;;19.80;99.90;;;;;;5027371;28;20243;-85
2023/06/22 05:12:04;;;;;;;9.50;9.20;;;19.80;99.90;;;;;;5025556;28;20232;-84
2023/06/22 05:14:44;;;;;;;9.73;9.43;;;19.90;99.90;;;;;;5025341;28;20228;-83
2023/06/22 05:17:13;;;;;;;9.95;9.65;;;20.00;99.90;;;;;;5025407;28;20246;-84
2023/06/22 05:19:44;;;;;;;10.05;9.75;;;20.00;99.90;;;;;;5029994;28;20224;-83
2023/06/22 05:22:13;;;;;;;10.15;9.85;;;20.10;99.90;;;;;;5039547;28;20216;-84
2023/06/22 05:24:41;;;;;;;10.10;9.80;;;20.10;99.90;;;;;;5037751;28;20231;-83
2023/06/22 05:27:09;;;;;;;9.90;9.60;;;20.10;99.90;;;;;;5037029;28;20236;-83
2023/06/22 05:29:50;;;;;;;10.00;9.70;;;20.20;99.90;;;;;;5040405;28;20232;-83
2023/06/22 05:32:18;;;;;;;10.38;10.07;;;20.30;99.90;;;;;;5038333;28;20207;-83
2023/06/22 05:34:46;;;;;;;10.60;10.30;;;20.40;99.90;;;;;;5033192;28;20236;-84
2023/06/22 05:37:16;;;;;;;11.15;10.85;;;20.50;99.90;;;;;;5062128;23;20392;-80
2023/06/22 05:39:46;;;;;;;10.80;10.50;;;20.60;99.90;;;;;;5044284;28;20283;-80
2023/06/22 05:42:14;;;;;;;10.75;10.45;;;20.80;99.90;;;;;;5055387;28;20316;-79
2023/06/22 05:44:47;;;;;;;10.40;10.10;;;21.00;99.90;;;;;;5065095;28;20309;-78
2023/06/22 05:47:15;;;;;;;10.50;10.20;;;21.20;99.90;;;;;;5046676;28;20317;-84
2023/06/22 05:49:43;;;;;;;10.45;10.15;;;21.30;99.90;;;;;;5049665;28;20224;-82
2023/06/22 05:52:13;;;;;;;10.40;10.10;;;21.40;99.90;;;;;;5033504;28;20365;-85
2023/06/22 05:54:44;;;;;;;10.38;10.07;;;21.50;99.90;;;;;;5041550;28;20299;-82
2023/06/22 05:57:11;;;;;;;10.27;9.98;;;21.60;99.90;;;;;;5044195;28;20238;-82
2023/06/22 05:59:40;;;;;;;10.60;10.30;;;21.60;99.90;;;;;;5043316;28;20258;-84
2023/06/22 06:02:20;;;;;;;10.80;10.50;;;21.70;99.90;;;;;;5021788;28;20224;-85
2023/06/22 06:04:52;;;;;;;11.00;10.70;;;21.80;99.90;;;;;;5023138;28;20216;-83
2023/06/22 06:07:20;;;;;;;11.07;10.77;;;21.90;99.90;;;;;;5029069;28;20236;-83
2023/06/22 06:09:48;;;;;;;10.82;10.52;;;22.00;99.90;;;;;;5022884;28;20236;-85
2023/06/22 06:12:17;;;;;;;11.10;10.80;;;22.00;99.90;;;;;;5033408;28;20252;-83
2023/06/22 06:14:47;;;;;;;11.00;10.70;;;22.10;99.90;;;;;;5032817;28;20243;-83
2023/06/22 06:17:18;;;;;;;11.27;10.90;;;22.20;99.90;;;;;;5022825;28;20236;-84
2023/06/22 06:19:46;;;;;;;11.40;11.00;;;22.30;99.90;;;;;;5023137;28;20228;-83
2023/06/22 06:22:16;;;;;;;11.05;10.75;;;22.40;99.90;;;;;;5022452;28;20232;-82
2023/06/22 06:24:47;;;;;;;11.07;10.77;;;22.40;99.90;;;;;;5021937;28;20220;-85
2023/06/22 06:28:31;;;;;;;;;;;;;;;;;;;;;
2023/06/22 07:25:53;;;;;;;11.20;10.90;;;24.80;99.90;;;;;;5057457;23;20274;-83
2023/06/22 07:28:36;;;;;;;11.10;10.80;;;24.90;99.90;;;;;;5001680;28;20239;-86
2023/06/22 07:31:10;;;;;;;11.00;10.70;;;25.00;99.90;;;;;;5001163;28;20296;-87
2023/06/22 07:33:38;;;;;;;10.60;10.30;;;25.20;99.90;;;;;;5001906;28;20260;-86
2023/06/22 07:36:07;;;;;;;10.75;10.45;;;25.30;99.90;;;;;;5009212;28;20240;-86
2023/06/22 07:38:37;;;;;;;10.77;10.48;;;25.30;99.90;;;;;;5009608;28;20235;-86
2023/06/22 07:41:05;;;;;;;11.10;10.80;;;25.50;99.90;;;;;;5001195;28;20229;-86
2023/06/22 07:46:22;;;;;;;10.90;10.60;;;25.70;99.90;;;;;;5001476;28;20262;-85
2023/06/22 07:48:52;;;;;;;10.80;10.50;;;25.80;99.90;;;;;;5000928;28;20235;-87
2023/06/22 07:51:21;;;;;;;10.70;10.40;;;25.90;99.90;;;;;;5001233;28;20252;-86
2023/06/22 07:53:50;;;;;;;10.70;10.40;;;26.00;99.90;;;;;;4994892;28;20261;-86
2023/06/22 07:56:20;;;;;;;10.68;10.38;;;26.10;99.90;;;;;;4998672;28;20245;-87
2023/06/22 07:58:53;;;;;;;10.50;10.20;;;26.30;99.90;;;;;;5001163;28;20236;-87
2023/06/22 08:01:27;;;;;;;10.57;10.27;;;26.50;99.90;;;;;;5000998;28;20229;-86
2023/06/22 08:03:57;;;;;;;10.60;10.30;;;26.60;99.90;;;;;;5007227;28;20256;-86
2023/06/22 08:06:30;;;;;;;10.80;10.50;;;26.70;99.90;;;;;;5005459;28;20233;-88
2023/06/22 08:08:58;;;;;;;10.45;10.15;;;26.80;99.90;;;;;;5001165;28;20349;-86
2023/06/22 08:11:34;;;;;;;10.73;10.43;;;26.90;99.90;;;;;;5000624;28;20241;-88
2023/06/22 08:14:17;;;;;;;11.00;10.70;;;26.90;99.90;;;;;;5000816;28;20248;-89
2023/06/22 08:16:50;;;;;;;10.80;10.50;;;27.00;99.90;;;;;;5001694;28;20240;-88
2023/06/22 08:22:14;;;;;;;11.52;11.15;;;27.30;99.90;;;;;;5004821;28;20229;-88
2023/06/22 08:24:49;;;;;;;11.35;11.05;;;27.50;99.90;;;;;;5007307;28;20229;-86
2023/06/22 08:27:20;;;;;;;11.20;10.90;;;27.60;99.90;;;;;;5019761;28;20262;-87
2023/06/22 08:29:58;;;;;;;11.00;10.70;;;27.80;99.90;;;;;;5019287;28;20221;-87
2023/06/22 08:32:26;;;;;;;10.90;10.60;;;28.10;99.90;;;;;;5005872;28;20221;-88
2023/06/22 08:34:57;;;;;;;10.90;10.60;;;28.20;99.90;;;;;;5004041;28;20247;-88
2023/06/22 08:37:30;;;;;;;10.77;10.48;;;28.30;99.90;;;;;;5003887;28;20267;-87
2023/06/22 08:40:03;;;;;;;10.73;10.43;;;28.40;99.90;;;;;;5004154;28;20237;-88
2023/06/22 08:42:31;;;;;;;10.65;10.35;;;28.50;99.90;;;;;;5004062;28;20288;-87
2023/06/22 08:45:03;;;;;;;10.93;10.63;;;28.50;99.90;;;;;;5003824;28;20250;-87
2023/06/22 08:47:40;;;;;;;10.80;10.50;;;28.70;99.90;;;;;;5004076;28;20243;-88
2023/06/22 08:50:17;;;;;;;10.80;10.50;;;28.70;99.90;;;;;;5004262;28;20236;-87
2023/06/22 08:52:46;;;;;;;10.40;10.10;;;28.70;99.90;;;;;;5002974;28;20221;-85
2023/06/22 08:55:15;;;;;;;10.60;10.30;;;28.90;99.90;;;;;;4983980;28;20243;-86
2023/06/22 09:03:26;;;;;;;10.77;10.48;;;29.20;99.90;;;;;;5002575;28;20214;-84
2023/06/22 09:05:57;;;;;;;11.10;10.80;;;29.30;99.90;;;;;;4996587;28;20237;-87
2023/06/22 09:08:27;;;;;;;10.98;10.68;;;29.40;99.90;;;;;;4988204;28;20267;-87
2023/06/22 09:11:05;;;;;;;11.25;10.95;;;29.70;99.90;;;;;;4984647;28;20261;-87
2023/06/22 09:13:46;;;;;;;10.90;10.60;;;29.90;99.90;;;;;;4985051;28;20244;-88
2023/06/22 09:16:33;;;;;;;11.00;10.70;;;30.00;99.90;;;;;;4984325;28;20241;-90
2023/06/22 09:19:01;;;;;;;11.00;10.70;;;30.10;99.90;;;;;;4996264;28;20248;-87
2023/06/22 09:27:21;;;;;;;10.95;10.65;;;29.90;99.90;;;;;;5025331;28;20244;-86
2023/06/22 09:29:50;;;;;;;11.30;11.00;;;29.80;99.90;;;;;;5029133;28;20229;-84
2023/06/22 09:32:23;;;;;;;11.30;11.00;;;29.70;99.90;;;;;;5024527;28;20244;-84
2023/06/22 09:34:50;;;;;;;11.20;10.90;;;29.80;99.90;;;;;;5016586;28;20249;-86
2023/06/22 09:37:20;;;;;;;10.98;10.68;;;29.80;99.90;;;;;;5021060;28;20252;-87
2023/06/22 09:39:50;;;;;;;10.85;10.55;;;29.90;99.90;;;;;;5018484;28;20310;-88
2023/06/22 09:42:17;;;;;;;10.77;10.48;;;30.10;99.90;;;;;;4999583;28;20221;-87
2023/06/22 09:44:49;;;;;;;10.80;10.50;;;30.30;99.90;;;;;;5003072;28;20249;-85
2023/06/22 09:47:19;;;;;;;11.10;10.80;;;30.40;99.90;;;;;;5002570;28;20247;-88
2023/06/22 09:49:47;;;;;;;10.95;10.65;;;30.60;99.90;;;;;;5002696;28;20237;-87
2023/06/22 09:52:15;;;;;;;11.00;10.70;;;30.70;99.90;;;;;;5003173;28;20229;-87
2023/06/22 09:54:44;;;;;;;10.70;10.40;;;30.80;99.90;;;;;;5002908;28;20228;-87
2023/06/22 09:57:13;;;;;;;10.40;10.10;;;30.80;99.90;;;;;;5004496;28;20240;-88
2023/06/22 09:59:43;;;;;;;11.20;10.90;;;30.80;99.90;;;;;;5003012;28;20258;-87
2023/06/22 10:02:13;;;;;;;11.00;10.70;;;31.00;99.90;;;;;;5002528;28;20243;-87
2023/06/22 10:04:51;;;;;;;11.00;10.70;;;31.10;99.90;;;;;;5012532;28;20244;-88
2023/06/22 10:07:20;;;;;;;11.10;10.80;;;31.20;99.90;;;;;;5002430;28;20300;-88
2023/06/22 10:09:52;;;;;;;11.35;11.05;;;31.40;99.90;;;;;;5002726;28;20332;-88
2023/06/22 10:15:06;;;;;;;10.80;10.50;;;31.60;99.90;;;;;;5008706;28;20259;-90
2023/06/22 10:17:37;;;;;;;11.20;10.90;;;31.60;99.90;;;;;;5010998;28;20260;-90
2023/06/22 10:23:05;;;;;;;11.00;10.70;;;31.90;99.90;;;;;;5020404;28;20220;-89
2023/06/22 10:25:34;;;;;;;11.27;10.98;;;32.10;99.90;;;;;;5020458;28;20211;-89
2023/06/22 10:28:04;;;;;;;11.25;10.95;;;32.20;99.90;;;;;;5013820;28;20269;-90
2023/06/22 10:30:32;;;;;;;11.32;11.02;;;32.40;99.90;;;;;;5005106;28;20235;-90
2023/06/22 10:33:07;;;;;;;11.77;11.38;;;32.50;99.90;;;;;;5004989;28;20239;-90
2023/06/22 10:35:42;;;;;;;11.38;11.07;;;32.80;99.90;;;;;;5004673;28;20231;-90
2023/06/22 10:38:10;;;;;;;11.40;11.10;;;33.20;99.90;;;;;;5007053;28;20279;-90
2023/06/22 10:40:47;;;;;;;11.80;11.40;;;33.40;99.90;;;;;;5007485;28;20228;-90
2023/06/22 10:43:26;;;;;;;11.00;10.70;;;33.50;99.90;;;;;;5006913;28;20224;-90
2023/06/22 10:46:14;;;;;;;11.55;11.20;;;33.50;99.90;;;;;;5010262;28;20217;-90
2023/06/22 10:48:54;;;;;;;;;;;;;;;;;;;;;
2023/06/22 10:57:05;;;;;;;11.45;11.15;;;34.40;99.90;;;;;;5003301;28;20217;-90
2023/06/22 10:59:50;;;;;;;11.55;11.25;;;34.40;99.90;;;;;;5003811;28;20229;-90
2023/06/22 11:02:29;;;;;;;11.30;11.00;;;34.50;99.90;;;;;;5003448;28;20256;-90
2023/06/22 11:05:06;;;;;;;11.45;11.15;;;34.80;99.90;;;;;;5003769;28;20243;-90
2023/06/22 11:10:22;;;;;;;11.10;10.80;;;34.60;99.90;;;;;;5003454;28;20259;-90
2023/06/22 11:13:02;;;;;;;11.20;10.90;;;34.50;99.90;;;;;;5001893;28;20229;-90
2023/06/22 11:15:48;;;;;;;11.10;10.80;;;34.70;99.90;;;;;;5000647;28;20240;-90
2023/06/22 11:18:28;;;;;;;11.30;11.00;;;34.80;99.90;;;;;;5009236;28;20310;-90
2023/06/22 11:24:37;;;;;;;10.77;10.48;;;34.70;99.90;;;;;;5023094;28;20230;-89
2023/06/22 11:27:13;;;;;;;11.10;10.80;;;34.60;99.90;;;;;;5031306;28;20511;-89
2023/06/22 11:29:46;;;;;;;10.77;10.48;;;34.70;99.90;;;;;;5038378;28;20204;-89
2023/06/22 11:32:24;;;;;;;10.90;10.60;;;35.00;99.90;;;;;;5039273;28;20208;-88
2023/06/22 11:35:29;;;;;;;11.23;10.93;;;35.00;99.90;;;;;;5028666;28;20238;-91
2023/06/22 11:37:58;;;;;;;11.20;10.90;;;35.20;99.90;;;;;;5048637;23;20242;-87
2023/06/22 11:40:27;;;;;;;10.90;10.60;;;35.30;99.90;;;;;;5033036;28;20240;-86
2023/06/22 11:42:55;;;;;;;11.10;10.80;;;35.40;99.90;;;;;;5026026;28;20223;-86
2023/06/22 11:45:32;;;;;;;10.95;10.65;;;35.40;99.90;;;;;;5041399;28;20228;-88
2023/06/22 11:48:01;;;;;;;11.02;10.73;;;35.40;99.90;;;;;;5023087;28;20243;-88
2023/06/22 11:50:35;;;;;;;11.05;10.75;;;35.60;99.90;;;;;;5021997;28;20256;-87
2023/06/22 11:53:08;;;;;;;11.15;10.85;;;36.00;99.90;;;;;;5025531;28;20238;-87
2023/06/22 11:58:26;;;;;;;11.20;10.90;;;36.40;99.90;;;;;;5019785;28;20359;-87
2023/06/22 12:00:55;;;;;;;11.10;10.80;;;36.70;99.90;;;;;;4992884;28;20255;-87
2023/06/22 12:03:24;;;;;;;11.13;10.82;;;36.80;99.90;;;;;;5032650;28;20275;-87
2023/06/22 12:05:54;;;;;;;11.27;10.98;;;36.60;99.90;;;;;;5036733;28;20236;-87
2023/06/22 12:08:24;;;;;;;11.10;10.80;;;36.30;99.90;;;;;;5026113;28;20243;-86
2023/06/22 12:10:55;;;;;;;11.10;10.80;;;36.10;99.90;;;;;;5025762;28;20231;-86
2023/06/22 12:13:24;;;;;;;11.25;10.95;;;36.30;99.90;;;;;;5025724;28;20228;-87
2023/06/22 12:15:52;;;;;;;11.20;10.90;;;36.90;99.90;;;;;;5024904;28;20277;-86
2023/06/22 12:18:23;;;;;;;11.13;10.82;;;37.30;99.90;;;;;;5025162;28;20235;-87
2023/06/22 12:20:52;;;;;;;10.90;10.60;;;37.30;99.90;;;;;;5024838;28;20230;-87
2023/06/22 12:23:21;;;;;;;11.10;10.80;;;36.90;99.90;;;;;;5016938;28;20231;-87
2023/06/22 12:25:51;;;;;;;11.18;10.88;;;36.20;99.90;;;;;;5025010;28;20314;-87
2023/06/22 12:28:29;;;;;;;11.20;10.90;;;35.70;99.90;;;;;;5025075;28;20240;-86
2023/06/22 12:30:59;;;;;;;11.00;10.70;;;35.90;99.90;;;;;;5016574;28;20304;-87
2023/06/22 12:40:21;;;;;;;10.43;10.13;;;36.20;99.90;;;;;;5012187;28;20248;-85
2023/06/22 13:11:53;;;;;;;10.77;10.48;;;35.80;99.90;;;;;;4928508;29;20227;-86
2023/06/22 13:18:36;;;;;;;10.80;10.50;;;36.10;99.90;;;;;;4942949;29;20243;-86
2023/06/22 13:44:40;;;;;;;10.80;10.50;;;37.20;99.90;;;;;;4984078;28;20249;-87
2023/06/22 14:51:00;;;;;;;10.57;10.27;;;36.20;99.90;;;;;;4834295;29;20227;-86
2023/06/22 14:54:28;;;;;;;10.82;10.52;;;36.30;99.90;;;;;;4848873;29;20488;-84
2023/06/22 16:58:19;;;;;;;10.57;10.27;;;38.90;99.90;;;;;;4796025;29;20450;-90
2023/06/22 17:01:16;;;;;;;10.63;10.32;;;38.90;99.90;;;;;;4871476;29;20259;-92
2023/06/22 17:04:01;;;;;;;10.50;10.20;;;39.00;99.90;;;;;;4881274;29;20250;-89
2023/06/22 17:07:12;;;;;;;10.27;9.98;;;39.10;99.90;;;;;;4901199;28;20267;-89
2023/06/22 17:10:02;;;;;;;10.63;10.32;;;39.10;99.90;;;;;;4980867;28;20316;-91
2023/06/22 17:12:47;;;;;;;10.40;10.10;;;38.80;99.90;;;;;;4987192;28;20236;-91
2023/06/22 17:15:20;;;;;;;10.18;9.88;;;38.50;99.90;;;;;;4985595;28;20240;-89
2023/06/22 17:18:15;;;;;;;10.32;10.02;;;38.50;99.90;;;;;;4985753;28;20264;-89
2023/06/22 17:21:24;;;;;;;10.00;9.70;;;38.40;99.90;;;;;;4985179;28;20241;-91
2023/06/22 17:33:45;;;;;;;10.07;9.77;;;37.30;99.90;;;;;;4978762;28;20224;-87
2023/06/22 17:36:21;;;;;;;10.23;9.93;;;36.90;99.90;;;;;;4983392;28;20253;-84
2023/06/22 17:38:54;;;;;;;10.27;9.98;;;36.50;99.90;;;;;;4983349;28;20229;-85
2023/06/22 17:47:30;;;;;;;10.10;9.80;;;35.90;99.90;;;;;;4980764;28;20225;-86
2023/06/22 17:50:08;;;;;;;10.20;9.90;;;35.60;99.90;;;;;;4986419;28;20295;-86
2023/06/22 17:52:40;;;;;;;10.35;10.05;;;35.50;99.90;;;;;;4993520;28;20237;-84
2023/06/22 17:55:27;;;;;;;10.63;10.32;;;35.30;99.90;;;;;;5002619;28;20328;-85
2023/06/22 17:58:06;;;;;;;9.75;9.45;;;35.20;99.90;;;;;;4983200;28;20237;-84
2023/06/22 18:01:16;;;;;;;10.00;9.70;;;35.10;99.90;;;;;;4983732;28;20253;-84
2023/06/22 18:03:55;;;;;;;9.90;9.60;;;35.10;99.90;;;;;;4985827;28;20253;-84
2023/06/22 18:06:26;;;;;;;9.70;9.40;;;35.00;99.90;;;;;;4991284;28;20247;-84
2023/06/22 18:09:23;;;;;;;9.73;9.43;;;35.00;99.90;;;;;;4985393;28;20325;-84
2023/06/22 18:12:49;;;;;;;9.70;9.40;;;34.90;99.90;;;;;;4984242;28;20297;-87
2023/06/22 18:15:40;;;;;;;10.20;9.90;;;34.80;99.90;;;;;;4923250;29;20323;-84
2023/06/22 18:22:30;;;;;;;;;;;;;;;;;;;;;
2023/06/22 18:42:11;;;;;;;9.60;9.30;;;33.70;99.90;;;;;;5136062;27;20528;-89
2023/06/22 18:44:42;;;;;;;9.57;9.27;;;32.90;99.90;;;;;;5116822;27;20252;-89
2023/06/22 18:47:11;;;;;;;9.60;9.30;;;32.90;99.90;;;;;;5112967;28;20229;-87
2023/06/22 18:49:49;;;;;;;9.68;9.38;;;32.80;99.90;;;;;;5109966;28;20241;-88
2023/06/22 18:52:18;;;;;;;9.48;9.18;;;32.50;99.90;;;;;;5103784;28;20249;-88
2023/06/22 18:54:49;;;;;;;9.60;9.30;;;32.40;99.90;;;;;;5099558;28;20226;-87
2023/06/22 18:57:25;;;;;;;9.60;9.30;;;32.20;99.90;;;;;;5097164;28;20245;-87
2023/06/22 19:00:09;;;;;;;9.80;9.50;;;32.00;99.90;;;;;;5096821;28;20217;-87
2023/06/22 19:02:43;;;;;;;9.90;9.60;;;31.70;99.90;;;;;;5097235;28;20254;-86
2023/06/22 19:05:20;;;;;;;9.80;9.50;;;31.40;99.90;;;;;;5097469;28;20303;-89
2023/06/22 19:08:02;;;;;;;10.10;9.80;;;31.10;99.90;;;;;;5098078;28;20301;-88
2023/06/22 19:10:45;;;;;;;9.85;9.55;;;31.00;99.90;;;;;;5097190;28;20226;-92
2023/06/22 19:16:30;;;;;;;9.57;9.27;;;31.00;99.90;;;;;;5219080;27;20551;-88
2023/06/22 19:18:58;;;;;;;9.98;9.68;;;30.30;99.90;;;;;;5202329;27;20264;-87
2023/06/22 19:21:26;;;;;;;9.55;9.25;;;30.00;99.90;;;;;;5200757;27;20253;-88
2023/06/22 19:23:56;;;;;;;9.60;9.30;;;29.60;99.90;;;;;;5200354;27;20275;-87
2023/06/22 19:26:25;;;;;;;9.52;9.23;;;29.40;99.90;;;;;;5200737;27;20237;-88
2023/06/22 19:28:57;;;;;;;9.77;9.48;;;29.20;99.90;;;;;;5181928;27;20317;-83
2023/06/22 19:34:13;;;;;;;9.73;9.43;;;28.50;99.90;;;;;;5190821;27;20233;-90
2023/06/22 19:36:41;;;;;;;9.80;9.50;;;28.30;99.90;;;;;;5186520;27;20230;-88
2023/06/22 19:39:10;;;;;;;9.25;8.98;;;28.10;99.90;;;;;;5180228;27;20252;-87
2023/06/22 19:44:36;;;;;;;9.15;8.90;;;27.80;99.90;;;;;;5180049;27;20207;-87